Time;durP1;ratioP1;P1;durP2;ratioP2;P2;SDS_P1;SDS_P2;PMS_P1;PMS_P2;Temp;Humidity;BMP_temperature;BMP_pressure;BME280_temperature;BME280_humidity;BME280_pressure;Samples;Min_cycle;Max_cycle;Signal;HPM_P1;HPM_P2
2021/08/05 00:02:14;;;;;;;5.45;2.70;;;16.50;99.90;;;;;;5058987;28;20017;-73
2021/08/05 00:04:40;;;;;;;2.33;1.98;;;16.50;99.90;;;;;;5072371;28;20038;-74
2021/08/05 00:07:05;;;;;;;5.35;2.53;;;16.50;99.90;;;;;;5061091;28;20304;-74
2021/08/05 00:09:33;;;;;;;4.00;2.30;;;16.40;99.90;;;;;;5039889;28;20536;-74
2021/08/05 00:11:58;;;;;;;2.42;2.10;;;16.40;99.90;;;;;;5065999;28;20029;-73
2021/08/05 00:14:24;;;;;;;2.78;2.38;;;16.40;99.90;;;;;;5057146;28;20123;-74
2021/08/05 00:16:50;;;;;;;5.30;2.35;;;16.40;99.90;;;;;;5079478;28;20051;-73
2021/08/05 00:19:15;;;;;;;5.85;2.55;;;16.30;99.90;;;;;;5071974;28;20043;-74
2021/08/05 00:21:41;;;;;;;4.05;2.30;;;16.30;99.90;;;;;;5069414;28;20021;-74
2021/08/05 00:24:06;;;;;;;4.43;2.40;;;16.30;99.90;;;;;;5058517;28;20050;-74
2021/08/05 00:26:32;;;;;;;4.28;2.22;;;16.30;99.90;;;;;;5063826;28;20021;-74
2021/08/05 00:28:57;;;;;;;3.30;2.38;;;16.20;99.90;;;;;;5064275;28;20056;-74
2021/08/05 00:31:23;;;;;;;3.50;2.42;;;16.20;99.90;;;;;;5073630;28;20386;-73
2021/08/05 00:33:48;;;;;;;5.63;2.58;;;16.10;99.90;;;;;;5066972;28;20024;-73
2021/08/05 00:36:14;;;;;;;2.80;2.30;;;16.10;99.90;;;;;;5057788;28;20024;-73
2021/08/05 00:38:40;;;;;;;3.35;2.20;;;16.10;99.90;;;;;;5068075;28;20028;-74
2021/08/05 00:41:05;;;;;;;3.00;2.08;;;16.10;99.90;;;;;;5064877;28;20039;-73
2021/08/05 00:43:34;;;;;;;3.00;2.25;;;16.10;99.90;;;;;;5060963;28;20027;-74
2021/08/05 00:45:59;;;;;;;3.50;2.22;;;16.00;99.90;;;;;;5061931;28;20025;-74
2021/08/05 00:48:25;;;;;;;4.82;2.30;;;16.10;99.90;;;;;;5075230;28;20033;-75
2021/08/05 00:50:51;;;;;;;3.78;2.28;;;16.00;99.90;;;;;;5064128;28;20112;-73
2021/08/05 00:53:16;;;;;;;2.38;2.03;;;16.00;99.90;;;;;;5069395;28;20036;-74
2021/08/05 00:55:42;;;;;;;3.28;2.10;;;16.00;99.90;;;;;;5073200;28;20032;-73
2021/08/05 00:58:08;;;;;;;3.53;2.03;;;16.00;99.90;;;;;;5060459;28;20028;-73
2021/08/05 01:00:33;;;;;;;4.30;2.10;;;16.00;99.90;;;;;;5067450;28;20505;-73
2021/08/05 01:03:26;;;;;;;3.03;2.03;;;16.00;99.90;;;;;;5067079;28;20031;-73
2021/08/05 01:06:14;;;;;;;3.13;2.10;;;16.00;99.90;;;;;;5064770;28;20042;-74
2021/08/05 01:08:45;;;;;;;5.75;2.58;;;15.90;99.90;;;;;;5038860;28;20092;-73
2021/08/05 01:11:18;;;;;;;3.22;2.10;;;15.90;99.90;;;;;;5052585;28;20033;-74
2021/08/05 01:13:54;;;;;;;4.72;2.15;;;15.90;99.90;;;;;;5045701;28;20036;-73
2021/08/05 01:16:25;;;;;;;3.35;2.33;;;15.90;99.90;;;;;;5038897;28;20025;-73
2021/08/05 01:18:55;;;;;;;5.75;2.20;;;15.90;99.90;;;;;;5048675;28;20059;-74
2021/08/05 01:21:32;;;;;;;3.75;2.30;;;15.80;99.90;;;;;;5043595;28;20025;-74
2021/08/05 01:24:03;;;;;;;3.10;2.17;;;15.80;99.90;;;;;;5060936;28;20360;-73
2021/08/05 01:26:47;;;;;;;;;;;15.80;99.90;;;;;;5047649;28;20028;-74
2021/08/05 01:29:14;;;;;;;3.47;2.38;;;15.80;99.90;;;;;;5045296;28;19909;-74
2021/08/05 01:31:42;;;;;;;2.97;2.00;;;15.70;99.90;;;;;;5059300;28;20139;-74
2021/08/05 01:34:14;;;;;;;2.75;1.77;;;15.70;99.90;;;;;;5039185;28;20030;-73
2021/08/05 01:36:43;;;;;;;4.63;2.20;;;15.70;99.90;;;;;;5050283;28;20036;-73
2021/08/05 01:39:13;;;;;;;3.90;1.90;;;15.70;99.90;;;;;;5049867;28;20124;-74
2021/08/05 01:41:41;;;;;;;3.28;2.10;;;15.60;99.90;;;;;;5051212;28;20037;-74
2021/08/05 01:44:12;;;;;;;4.72;2.15;;;15.70;99.90;;;;;;5058154;28;20045;-74
2021/08/05 01:46:39;;;;;;;2.97;2.10;;;15.60;99.90;;;;;;5042074;28;20047;-74
2021/08/05 01:49:16;;;;;;;5.85;2.50;;;15.60;99.90;;;;;;5056518;28;20025;-74
2021/08/05 01:51:42;;;;;;;3.30;2.13;;;15.60;99.90;;;;;;5050493;28;20033;-73
2021/08/05 01:54:15;;;;;;;3.95;2.20;;;15.60;99.90;;;;;;5048299;28;20030;-73
2021/08/05 01:56:41;;;;;;;3.70;2.30;;;15.50;99.90;;;;;;5047286;28;20510;-74
2021/08/05 01:59:07;;;;;;;2.92;2.40;;;15.50;99.90;;;;;;5020974;28;20504;-73
2021/08/05 02:01:32;;;;;;;4.72;2.35;;;15.50;99.90;;;;;;5038559;28;20404;-74
2021/08/05 02:04:07;;;;;;;2.75;2.15;;;15.50;99.90;;;;;;5057534;28;20376;-74
2021/08/05 02:06:38;;;;;;;4.45;2.45;;;15.50;99.90;;;;;;5057218;28;20102;-73
2021/08/05 02:09:12;;;;;;;4.47;2.47;;;15.40;99.90;;;;;;5066581;28;20117;-74
2021/08/05 02:11:43;;;;;;;3.53;2.28;;;15.40;99.90;;;;;;5057489;28;20065;-74
2021/08/05 02:14:13;;;;;;;6.00;2.65;;;15.40;99.90;;;;;;5062410;28;20043;-73
2021/08/05 02:16:41;;;;;;;4.68;2.53;;;15.40;99.90;;;;;;5064971;28;20036;-74
2021/08/05 02:19:08;;;;;;;2.45;1.92;;;15.40;99.90;;;;;;5068902;28;20075;-73
2021/08/05 02:21:34;;;;;;;2.63;2.20;;;15.40;99.90;;;;;;5057905;28;20040;-74
2021/08/05 02:24:00;;;;;;;7.80;2.25;;;15.30;99.90;;;;;;5066816;28;20116;-73
2021/08/05 02:26:27;;;;;;;3.17;1.98;;;15.30;99.90;;;;;;5062943;28;20108;-73
2021/08/05 02:28:53;;;;;;;2.80;2.20;;;15.30;99.90;;;;;;5063012;28;20113;-73
2021/08/05 02:31:19;;;;;;;4.25;2.22;;;15.30;99.90;;;;;;5062763;28;20024;-74
2021/08/05 02:33:46;;;;;;;5.65;2.38;;;15.20;99.90;;;;;;5061608;28;20078;-73
2021/08/05 02:36:12;;;;;;;3.42;2.10;;;15.20;99.90;;;;;;5070768;28;20048;-73
2021/08/05 02:38:37;;;;;;;6.70;1.90;;;15.20;99.90;;;;;;5066305;28;20060;-73
2021/08/05 02:41:05;;;;;;;5.88;2.08;;;15.20;99.90;;;;;;5063041;28;20387;-74
2021/08/05 02:43:32;;;;;;;4.43;1.92;;;15.20;99.90;;;;;;5063545;28;20025;-75
2021/08/05 02:45:59;;;;;;;3.33;2.10;;;15.20;99.90;;;;;;5069412;28;20037;-73
2021/08/05 02:48:26;;;;;;;3.47;2.03;;;15.10;99.90;;;;;;5068161;28;20020;-74
2021/08/05 02:50:56;;;;;;;3.90;2.17;;;15.10;99.90;;;;;;5067508;28;20032;-74
2021/08/05 02:53:22;;;;;;;3.67;2.20;;;15.00;99.90;;;;;;5063574;28;20029;-74
2021/08/05 02:55:48;;;;;;;2.85;2.10;;;15.00;99.90;;;;;;5045082;28;20163;-74
2021/08/05 02:58:15;;;;;;;3.55;2.17;;;15.00;99.90;;;;;;5056954;28;21165;-73
2021/08/05 03:00:42;;;;;;;6.22;2.38;;;15.00;99.90;;;;;;5069217;28;20028;-74
2021/08/05 03:03:07;;;;;;;2.65;2.08;;;15.00;99.90;;;;;;5061323;28;20036;-74
2021/08/05 03:05:33;;;;;;;2.95;2.10;;;15.00;99.90;;;;;;5063645;28;20624;-74
2021/08/05 03:07:59;;;;;;;1.83;1.70;;;15.00;99.90;;;;;;5068546;28;20044;-73
2021/08/05 03:10:24;;;;;;;6.03;2.15;;;15.00;99.90;;;;;;5063456;28;20432;-74
2021/08/05 03:12:50;;;;;;;4.45;2.15;;;14.90;99.90;;;;;;5069234;28;20085;-73
2021/08/05 03:15:15;;;;;;;4.65;2.13;;;14.90;99.90;;;;;;5058451;28;20028;-74
2021/08/05 03:17:41;;;;;;;3.78;2.60;;;14.90;99.90;;;;;;5065808;28;20077;-74
2021/08/05 03:20:07;;;;;;;3.08;1.83;;;14.90;99.90;;;;;;5058853;28;20391;-73
2021/08/05 03:22:33;;;;;;;3.08;2.47;;;14.90;99.90;;;;;;5066602;28;20499;-74
2021/08/05 03:24:58;;;;;;;2.72;1.90;;;14.90;99.90;;;;;;5063015;28;20050;-74
2021/08/05 03:27:24;;;;;;;3.83;2.40;;;14.90;99.90;;;;;;5060381;28;20028;-74
2021/08/05 03:29:49;;;;;;;4.18;1.95;;;14.90;99.90;;;;;;5068322;28;20686;-73
2021/08/05 03:32:15;;;;;;;3.72;2.17;;;14.90;99.90;;;;;;5061799;28;20025;-73
2021/08/05 03:34:40;;;;;;;5.18;2.25;;;14.90;99.90;;;;;;5060907;28;20064;-74
2021/08/05 03:37:06;;;;;;;3.30;2.40;;;14.90;99.90;;;;;;5063521;28;20036;-73
2021/08/05 03:39:31;;;;;;;5.88;2.10;;;14.80;99.90;;;;;;5063670;28;20086;-74
2021/08/05 03:41:57;;;;;;;3.90;2.40;;;14.80;99.90;;;;;;5064523;28;20104;-73
2021/08/05 03:44:23;;;;;;;5.15;2.70;;;14.80;99.90;;;;;;5065946;28;20111;-73
2021/08/05 03:46:48;;;;;;;5.75;2.38;;;14.80;99.90;;;;;;5070038;28;20469;-73
2021/08/05 03:49:15;;;;;;;4.95;2.53;;;14.80;99.90;;;;;;5060298;28;20032;-73
2021/08/05 03:51:41;;;;;;;7.65;2.92;;;14.80;99.90;;;;;;5064759;28;20032;-73
2021/08/05 03:54:06;;;;;;;6.65;2.83;;;14.80;99.90;;;;;;5065908;28;20491;-73
2021/08/05 03:56:33;;;;;;;4.75;2.75;;;14.80;99.90;;;;;;5064125;28;20187;-73
2021/08/05 03:58:58;;;;;;;3.72;2.42;;;14.80;99.90;;;;;;5059525;28;20100;-73
2021/08/05 04:01:24;;;;;;;4.25;2.72;;;14.80;99.90;;;;;;5063579;28;20531;-73
2021/08/05 04:03:49;;;;;;;3.33;2.38;;;14.90;99.90;;;;;;5058876;28;20025;-73
2021/08/05 04:06:15;;;;;;;3.22;2.38;;;14.90;99.90;;;;;;5056261;28;20498;-73
2021/08/05 04:08:40;;;;;;;4.20;2.50;;;14.90;99.90;;;;;;5064602;28;20093;-73
2021/08/05 04:11:06;;;;;;;5.03;2.55;;;14.90;99.90;;;;;;5054751;28;20079;-73
2021/08/05 04:13:32;;;;;;;6.95;2.42;;;14.90;99.90;;;;;;5053420;28;20558;-74
2021/08/05 04:15:57;;;;;;;4.22;2.67;;;14.90;99.90;;;;;;5064782;28;20032;-74
2021/08/05 04:18:23;;;;;;;4.68;2.47;;;14.90;99.90;;;;;;5054738;28;20415;-72
2021/08/05 04:20:48;;;;;;;4.43;2.72;;;14.90;99.90;;;;;;5056481;28;20020;-73
2021/08/05 04:23:14;;;;;;;3.38;2.40;;;14.90;99.90;;;;;;5055478;28;20020;-73
2021/08/05 04:25:39;;;;;;;4.88;2.55;;;14.90;99.90;;;;;;5057792;28;20061;-72
2021/08/05 04:28:05;;;;;;;4.05;2.75;;;14.90;99.90;;;;;;5061865;28;20458;-73
2021/08/05 04:30:31;;;;;;;4.57;2.60;;;15.00;99.90;;;;;;5059183;28;20032;-74
2021/08/05 04:32:56;;;;;;;7.43;2.33;;;15.00;99.90;;;;;;5064776;28;20036;-73
2021/08/05 04:35:22;;;;;;;8.18;2.85;;;14.90;99.90;;;;;;5061282;28;20056;-73
2021/08/05 04:37:56;;;;;;;2.22;2.03;;;14.90;99.90;;;;;;5056825;28;20069;-73
2021/08/05 04:40:23;;;;;;;2.92;2.45;;;15.00;99.90;;;;;;5064989;28;20161;-73
2021/08/05 04:42:48;;;;;;;3.38;2.40;;;15.00;99.90;;;;;;5065687;28;20108;-73
2021/08/05 04:45:14;;;;;;;3.45;2.42;;;15.00;99.90;;;;;;5063954;28;20105;-73
2021/08/05 04:48:06;;;;;;;8.57;2.40;;;15.00;99.90;;;;;;5057229;28;20021;-73
2021/08/05 04:50:34;;;;;;;3.15;2.50;;;15.00;99.90;;;;;;5049302;28;20090;-73
2021/08/05 04:52:59;;;;;;;3.67;2.38;;;15.00;99.90;;;;;;5057544;28;20086;-73
2021/08/05 04:55:26;;;;;;;5.20;2.33;;;15.00;99.90;;;;;;5057016;28;20494;-73
2021/08/05 04:57:57;;;;;;;5.95;2.22;;;15.10;99.90;;;;;;5062116;28;20386;-73
2021/08/05 05:00:31;;;;;;;7.20;2.30;;;15.20;99.90;;;;;;5054695;28;20036;-73
2021/08/05 05:02:57;;;;;;;3.75;2.65;;;15.10;99.90;;;;;;5051895;28;20436;-73
2021/08/05 05:05:23;;;;;;;3.85;2.72;;;15.20;99.90;;;;;;5054346;28;20059;-71
2021/08/05 05:07:50;;;;;;;5.32;2.55;;;15.20;99.90;;;;;;5058068;28;20048;-71
2021/08/05 05:10:17;;;;;;;3.25;2.30;;;15.20;99.90;;;;;;5056036;28;20036;-70
2021/08/05 05:12:43;;;;;;;4.60;2.40;;;15.20;99.90;;;;;;5061571;28;20025;-71
2021/08/05 05:15:19;;;;;;;4.90;2.58;;;15.30;99.90;;;;;;5063391;28;20029;-70
2021/08/05 05:17:45;;;;;;;5.68;2.53;;;15.30;99.90;;;;;;5057713;28;20035;-70
2021/08/05 05:20:11;;;;;;;5.05;2.53;;;15.40;99.90;;;;;;5062920;28;20402;-70
2021/08/05 05:22:38;;;;;;;6.22;2.50;;;15.40;99.90;;;;;;5063072;28;20035;-72
2021/08/05 05:25:06;;;;;;;3.10;2.28;;;15.50;99.90;;;;;;5064116;28;20403;-70
2021/08/05 05:27:32;;;;;;;4.18;2.70;;;15.50;99.90;;;;;;5067248;28;20025;-74
2021/08/05 05:30:00;;;;;;;8.48;2.95;;;15.50;99.90;;;;;;5058455;28;20024;-74
2021/08/05 05:32:31;;;;;;;6.07;2.53;;;15.60;99.90;;;;;;5057056;28;20036;-71
2021/08/05 05:34:57;;;;;;;7.03;2.50;;;15.60;99.90;;;;;;5062735;28;20083;-71
2021/08/05 05:37:23;;;;;;;3.15;2.30;;;15.60;99.90;;;;;;5068393;28;20806;-70
2021/08/05 05:39:50;;;;;;;3.80;2.40;;;15.70;99.90;;;;;;5067134;28;20873;-70
2021/08/05 05:42:15;;;;;;;4.90;2.45;;;15.70;99.90;;;;;;5055192;28;20057;-71
2021/08/05 05:44:41;;;;;;;3.05;2.47;;;15.70;99.90;;;;;;5070738;28;20024;-70
2021/08/05 05:47:06;;;;;;;3.10;2.45;;;15.80;99.90;;;;;;5066934;28;20398;-70
2021/08/05 05:49:32;;;;;;;6.00;2.67;;;15.80;99.90;;;;;;5059858;28;20083;-71
2021/08/05 05:51:58;;;;;;;4.15;2.70;;;15.90;99.90;;;;;;5055227;28;20100;-70
2021/08/05 05:54:24;;;;;;;4.63;2.95;;;15.90;99.90;;;;;;5061172;28;20028;-70
2021/08/05 05:56:49;;;;;;;4.18;2.53;;;16.00;99.90;;;;;;5060448;28;20020;-71
2021/08/05 05:59:15;;;;;;;4.30;2.72;;;16.00;99.90;;;;;;5060979;28;20056;-71
2021/08/05 06:01:40;;;;;;;4.88;2.60;;;16.00;99.90;;;;;;5062203;28;20059;-71
2021/08/05 06:04:06;;;;;;;6.07;2.80;;;16.10;99.90;;;;;;5053682;28;20025;-69
2021/08/05 06:06:31;;;;;;;4.50;2.53;;;16.20;99.90;;;;;;5059198;28;20041;-72
2021/08/05 06:09:02;;;;;;;3.85;2.60;;;16.30;99.90;;;;;;5059433;28;20070;-73
2021/08/05 06:11:28;;;;;;;4.57;2.75;;;16.40;99.90;;;;;;5053036;28;20506;-73
2021/08/05 06:13:54;;;;;;;10.20;3.00;;;16.40;99.90;;;;;;5061072;28;20678;-75
2021/08/05 06:16:20;;;;;;;5.80;2.60;;;16.50;99.90;;;;;;5058931;28;20024;-75
2021/08/05 06:18:49;;;;;;;4.28;2.40;;;16.60;99.90;;;;;;5057136;28;20115;-75
2021/08/05 06:21:15;;;;;;;3.63;2.50;;;16.60;99.90;;;;;;5058416;28;20024;-75
2021/08/05 06:23:41;;;;;;;8.52;2.80;;;16.70;99.90;;;;;;5062935;28;20111;-75
2021/08/05 06:26:06;;;;;;;11.02;3.47;;;16.70;99.90;;;;;;5055816;28;20067;-71
2021/08/05 06:28:33;;;;;;;11.57;3.03;;;16.80;99.90;;;;;;5063975;28;20150;-71
2021/08/05 06:31:00;;;;;;;4.43;2.78;;;16.80;99.90;;;;;;5058405;28;20134;-71
2021/08/05 06:33:28;;;;;;;8.40;3.75;;;16.90;99.90;;;;;;5067455;28;20089;-71
2021/08/05 06:35:54;;;;;;;4.25;3.58;;;16.90;99.90;;;;;;5059948;28;20032;-72
2021/08/05 06:38:22;;;;;;;6.72;3.60;;;17.00;99.90;;;;;;5055558;28;20561;-71
2021/08/05 06:40:47;;;;;;;9.77;3.90;;;17.10;99.90;;;;;;5061384;28;20391;-72
2021/08/05 06:43:13;;;;;;;6.40;3.88;;;17.10;99.90;;;;;;5064558;28;20035;-72
2021/08/05 06:45:39;;;;;;;5.90;3.83;;;17.10;99.90;;;;;;5069762;28;20574;-71
2021/08/05 06:48:05;;;;;;;7.10;3.85;;;17.20;99.90;;;;;;5069861;28;20028;-71
2021/08/05 06:50:30;;;;;;;5.15;3.13;;;17.30;99.90;;;;;;5061383;28;20028;-71
2021/08/05 06:52:56;;;;;;;7.95;3.40;;;17.30;99.90;;;;;;5064247;28;20074;-72
2021/08/05 06:55:21;;;;;;;5.75;3.97;;;17.40;99.90;;;;;;5056895;28;20024;-72
2021/08/05 06:57:47;;;;;;;5.53;3.60;;;17.40;99.90;;;;;;5068257;28;20028;-71
2021/08/05 07:00:14;;;;;;;5.57;3.50;;;17.50;99.90;;;;;;5060086;28;20069;-72
2021/08/05 07:02:40;;;;;;;4.40;3.50;;;17.60;99.90;;;;;;5067805;28;20016;-71
2021/08/05 07:05:09;;;;;;;12.43;3.83;;;17.60;99.90;;;;;;5063913;28;20079;-72
2021/08/05 07:07:35;;;;;;;5.38;3.67;;;17.70;99.90;;;;;;5067283;28;20693;-71
2021/08/05 07:10:02;;;;;;;4.75;3.58;;;17.80;99.90;;;;;;5069088;28;20040;-72
2021/08/05 07:12:28;;;;;;;5.00;3.58;;;17.80;99.90;;;;;;5066434;28;20537;-72
2021/08/05 07:14:54;;;;;;;8.48;3.75;;;17.90;99.90;;;;;;5068627;28;20073;-72
2021/08/05 07:17:19;;;;;;;6.30;3.92;;;18.00;99.90;;;;;;5058222;28;20029;-71
2021/08/05 07:19:45;;;;;;;7.47;3.92;;;18.10;99.90;;;;;;5063634;28;20025;-71
2021/08/05 07:22:11;;;;;;;5.82;4.20;;;18.20;99.90;;;;;;5067362;28;20021;-72
2021/08/05 07:24:37;;;;;;;8.40;3.58;;;18.20;99.90;;;;;;5056107;28;20040;-72
2021/08/05 07:27:03;;;;;;;11.68;3.88;;;18.30;99.90;;;;;;5056867;28;20028;-72
2021/08/05 07:29:31;;;;;;;4.53;3.28;;;18.40;99.90;;;;;;5054913;28;20029;-71
2021/08/05 07:32:01;;;;;;;5.20;3.67;;;18.50;99.90;;;;;;5064938;28;20048;-71
2021/08/05 07:34:26;;;;;;;6.57;3.63;;;18.50;99.90;;;;;;5050790;28;20037;-71
2021/08/05 07:36:52;;;;;;;4.57;3.67;;;18.50;99.90;;;;;;5059123;28;20055;-71
2021/08/05 07:39:17;;;;;;;6.07;3.63;;;18.60;99.90;;;;;;5054570;28;20020;-72
2021/08/05 07:41:43;;;;;;;5.38;3.20;;;18.60;99.90;;;;;;5065174;28;20068;-71
2021/08/05 07:44:08;;;;;;;4.63;3.40;;;18.60;99.90;;;;;;5062280;28;20024;-72
2021/08/05 07:46:34;;;;;;;5.10;3.63;;;18.60;99.90;;;;;;5067609;28;20471;-72
2021/08/05 07:49:00;;;;;;;5.32;3.75;;;18.70;99.90;;;;;;5062468;28;20043;-72
2021/08/05 07:51:26;;;;;;;10.50;3.35;;;18.70;99.90;;;;;;5063021;28;20045;-71
2021/08/05 07:53:53;;;;;;;6.28;3.40;;;18.70;99.90;;;;;;5060263;28;20031;-71
2021/08/05 07:56:21;;;;;;;8.10;3.67;;;18.70;99.90;;;;;;5060251;28;20024;-71
2021/08/05 07:58:46;;;;;;;3.78;3.17;;;18.80;99.90;;;;;;5063560;28;20112;-72
2021/08/05 08:01:12;;;;;;;4.75;3.33;;;18.90;99.90;;;;;;5066203;28;20108;-72
2021/08/05 08:03:37;;;;;;;5.35;3.30;;;18.90;99.90;;;;;;5056309;28;20562;-72
2021/08/05 08:06:03;;;;;;;3.72;2.80;;;18.90;99.90;;;;;;5062121;28;20025;-72
2021/08/05 08:08:28;;;;;;;7.03;3.30;;;19.00;99.90;;;;;;5052560;28;20476;-72
2021/08/05 08:10:54;;;;;;;3.45;3.15;;;19.10;99.90;;;;;;5066316;28;20020;-71
2021/08/05 08:13:19;;;;;;;6.20;3.13;;;19.10;99.90;;;;;;5061195;28;20032;-71
2021/08/05 08:15:46;;;;;;;4.25;2.72;;;19.10;99.90;;;;;;5068424;28;20020;-71
2021/08/05 08:18:12;;;;;;;7.50;2.88;;;19.20;99.90;;;;;;5060975;28;20017;-71
2021/08/05 08:20:37;;;;;;;6.13;3.70;;;19.20;99.90;;;;;;5054591;28;20383;-71
2021/08/05 08:23:03;;;;;;;6.20;3.55;;;19.30;99.90;;;;;;5057243;28;20013;-72
2021/08/05 08:25:29;;;;;;;4.72;3.28;;;19.50;99.90;;;;;;5058044;28;20028;-71
2021/08/05 08:27:54;;;;;;;5.20;2.75;;;19.60;99.90;;;;;;5065403;28;20039;-74
2021/08/05 08:30:20;;;;;;;3.58;2.35;;;19.70;99.90;;;;;;5061487;28;20023;-72
2021/08/05 08:32:47;;;;;;;3.90;3.35;;;19.70;99.90;;;;;;5068017;28;20032;-72
2021/08/05 08:35:13;;;;;;;3.65;2.95;;;19.80;99.90;;;;;;5065216;28;20081;-72
2021/08/05 08:37:38;;;;;;;3.38;3.05;;;19.90;99.90;;;;;;5063537;28;20531;-72
2021/08/05 08:40:05;;;;;;;4.75;3.60;;;19.90;99.90;;;;;;5056194;28;20032;-72
2021/08/05 08:42:32;;;;;;;6.35;3.75;;;20.00;99.90;;;;;;5050812;28;20025;-72
2021/08/05 08:44:57;;;;;;;6.30;3.85;;;20.10;99.90;;;;;;5067819;28;20017;-72
2021/08/05 08:47:23;;;;;;;8.18;3.00;;;20.20;99.90;;;;;;5069839;28;20046;-72
2021/08/05 08:49:50;;;;;;;3.53;2.45;;;20.20;99.90;;;;;;5074917;28;20032;-72
2021/08/05 08:52:19;;;;;;;5.07;2.70;;;20.20;99.90;;;;;;5075033;28;20021;-71
2021/08/05 08:54:46;;;;;;;3.63;2.60;;;20.30;99.90;;;;;;5068034;28;20028;-71
2021/08/05 08:57:16;;;;;;;5.68;3.00;;;20.30;99.60;;;;;;5068219;28;20031;-72
2021/08/05 08:59:44;;;;;;;4.83;2.80;;;20.30;99.90;;;;;;5068241;28;20403;-71
2021/08/05 09:02:11;;;;;;;2.95;2.47;;;20.40;99.00;;;;;;5072131;28;20025;-72
2021/08/05 09:04:38;;;;;;;6.13;2.95;;;20.60;99.40;;;;;;5065508;28;20060;-72
2021/08/05 09:07:04;;;;;;;3.95;2.58;;;20.70;97.30;;;;;;5069250;28;20527;-72
2021/08/05 09:09:29;;;;;;;9.25;2.78;;;20.80;98.60;;;;;;5073000;28;20028;-72
2021/08/05 09:11:55;;;;;;;5.10;2.55;;;21.00;97.50;;;;;;5060524;28;20036;-72
2021/08/05 09:14:43;;;;;;;5.57;2.60;;;21.00;97.60;;;;;;5074126;28;20021;-72
2021/08/05 09:17:21;;;;;;;8.50;2.80;;;21.10;97.70;;;;;;5062492;28;20028;-72
2021/08/05 09:19:47;;;;;;;3.13;2.65;;;21.20;97.70;;;;;;5074794;28;20035;-72
2021/08/05 09:22:45;;;;;;;3.88;2.47;;;21.40;96.20;;;;;;5076540;28;20029;-72
2021/08/05 09:25:21;;;;;;;4.65;2.22;;;21.40;95.10;;;;;;5075086;28;20112;-72
2021/08/05 09:27:47;;;;;;;2.53;2.10;;;21.50;93.60;;;;;;5074093;28;20082;-72
2021/08/05 09:30:27;;;;;;;2.10;1.90;;;21.60;94.10;;;;;;5073617;28;20075;-72
2021/08/05 09:32:53;;;;;;;3.10;2.53;;;21.80;93.40;;;;;;5068074;28;20119;-71
2021/08/05 09:35:18;;;;;;;3.03;2.65;;;21.80;92.40;;;;;;5074211;28;20693;-72
2021/08/05 09:37:44;;;;;;;2.97;2.63;;;21.90;92.70;;;;;;5063016;28;20029;-72
2021/08/05 09:40:14;;;;;;;2.08;1.88;;;22.10;91.20;;;;;;5068736;28;20033;-72
2021/08/05 09:42:41;;;;;;;4.57;2.17;;;22.20;91.60;;;;;;5079838;28;20386;-72
2021/08/05 09:45:07;;;;;;;2.42;2.05;;;22.20;90.90;;;;;;5073661;28;20048;-71
2021/08/05 09:47:53;;;;;;;5.68;2.83;;;22.30;89.40;;;;;;5070163;28;20029;-72
2021/08/05 09:50:28;;;;;;;9.10;2.97;;;22.50;91.40;;;;;;5062242;28;20122;-72
2021/08/05 09:53:11;;;;;;;4.20;2.92;;;22.60;91.20;;;;;;5074840;28;20024;-73
2021/08/05 09:55:37;;;;;;;3.35;2.60;;;22.70;87.40;;;;;;5073721;28;20483;-72
2021/08/05 09:58:05;;;;;;;2.40;2.20;;;22.80;89.20;;;;;;5070589;28;20039;-72
2021/08/05 10:00:44;;;;;;;6.88;2.40;;;22.90;87.70;;;;;;5065881;28;20028;-72
2021/08/05 10:03:10;;;;;;;2.75;2.10;;;23.00;84.90;;;;;;5069186;28;20189;-72
2021/08/05 10:05:36;;;;;;;2.60;2.15;;;23.10;85.60;;;;;;5070702;28;20047;-72
2021/08/05 10:08:02;;;;;;;3.33;2.75;;;23.10;83.30;;;;;;5063553;28;20491;-72
2021/08/05 10:10:47;;;;;;;2.78;2.17;;;23.20;81.10;;;;;;5070994;28;20028;-72
2021/08/05 10:13:27;;;;;;;2.63;2.42;;;23.20;83.30;;;;;;5064346;28;20028;-72
2021/08/05 10:15:53;;;;;;;2.92;2.15;;;23.30;80.70;;;;;;5062388;28;20032;-72
2021/08/05 10:18:19;;;;;;;2.13;1.92;;;23.40;79.60;;;;;;5070729;28;20033;-72
2021/08/05 10:20:45;;;;;;;2.58;2.10;;;23.40;82.00;;;;;;5062031;28;20483;-72
2021/08/05 10:23:11;;;;;;;3.08;1.98;;;23.50;77.50;;;;;;5064021;28;20029;-72
2021/08/05 10:25:38;;;;;;;2.97;2.10;;;23.50;78.80;;;;;;5067982;28;20029;-72
2021/08/05 10:28:04;;;;;;;4.90;2.20;;;23.60;77.50;;;;;;5062765;28;20451;-72
2021/08/05 10:30:30;;;;;;;2.15;1.95;;;23.70;80.00;;;;;;5070512;28;20074;-71
2021/08/05 10:32:56;;;;;;;3.05;2.40;;;23.80;78.70;;;;;;5070640;28;20107;-72
2021/08/05 10:35:24;;;;;;;3.08;2.25;;;24.00;79.40;;;;;;5070399;28;20081;-71
2021/08/05 10:37:50;;;;;;;2.97;2.47;;;24.00;74.60;;;;;;5067694;28;20103;-72
2021/08/05 10:40:17;;;;;;;3.05;2.40;;;24.10;74.60;;;;;;5067936;28;20056;-72
2021/08/05 10:42:44;;;;;;;4.15;1.95;;;24.10;76.90;;;;;;5064485;28;20050;-72
2021/08/05 10:45:11;;;;;;;2.47;2.17;;;24.10;74.20;;;;;;5070530;28;20489;-72
2021/08/05 10:47:38;;;;;;;3.38;2.10;;;24.10;75.30;;;;;;5069862;28;20104;-72
2021/08/05 10:50:13;;;;;;;3.13;2.22;;;24.20;75.40;;;;;;5070125;28;20393;-72
2021/08/05 10:52:40;;;;;;;6.18;2.53;;;24.30;73.60;;;;;;5069799;28;20445;-72
2021/08/05 10:55:15;;;;;;;3.55;1.70;;;24.30;75.50;;;;;;5061827;28;20085;-72
2021/08/05 10:57:41;;;;;;;2.03;1.83;;;24.30;73.60;;;;;;5068721;28;20025;-72
2021/08/05 11:00:08;;;;;;;2.00;1.80;;;24.30;71.50;;;;;;5069846;28;20556;-72
2021/08/05 11:02:44;;;;;;;2.17;1.98;;;24.30;73.80;;;;;;5069883;28;20060;-73
2021/08/05 11:05:11;;;;;;;3.97;1.75;;;24.10;74.10;;;;;;5070061;28;20048;-71
2021/08/05 11:07:37;;;;;;;1.80;1.70;;;24.00;75.30;;;;;;5069157;28;20193;-72
2021/08/05 11:10:24;;;;;;;1.70;1.50;;;23.80;75.90;;;;;;5065145;28;20115;-72
2021/08/05 11:12:58;;;;;;;4.85;2.33;;;23.60;76.10;;;;;;5068761;28;20024;-72
2021/08/05 11:15:35;;;;;;;4.88;2.30;;;23.40;76.00;;;;;;5067918;28;20087;-72
2021/08/05 11:18:16;;;;;;;4.07;2.40;;;23.30;83.40;;;;;;5070556;28;20089;-72
2021/08/05 11:20:51;;;;;;;2.95;2.55;;;23.20;82.30;;;;;;5054837;28;20024;-72
2021/08/05 11:23:29;;;;;;;2.05;1.85;;;23.20;82.30;;;;;;5064861;28;20028;-72
2021/08/05 11:25:55;;;;;;;1.90;1.80;;;23.20;80.00;;;;;;5069523;28;20479;-72
2021/08/05 11:28:25;;;;;;;2.03;1.83;;;23.20;79.90;;;;;;5057184;28;20031;-72
2021/08/05 11:31:05;;;;;;;1.95;1.83;;;23.20;80.30;;;;;;5069684;28;20033;-72
2021/08/05 11:33:37;;;;;;;2.22;2.03;;;23.40;81.80;;;;;;5061803;28;20047;-76
2021/08/05 11:38:57;;;;;;;1.70;1.60;;;23.80;80.60;;;;;;5066052;28;20029;-76
2021/08/05 11:41:44;;;;;;;2.03;1.83;;;24.00;77.40;;;;;;5063352;28;20117;-76
2021/08/05 11:44:37;;;;;;;4.18;1.95;;;24.00;77.10;;;;;;5066293;28;20029;-76
2021/08/05 11:47:06;;;;;;;1.58;1.45;;;24.10;76.00;;;;;;5060204;28;20020;-76
2021/08/05 11:49:40;;;;;;;5.18;1.70;;;24.20;75.30;;;;;;5066625;28;20066;-76
2021/08/05 11:52:08;;;;;;;2.92;1.85;;;24.40;73.50;;;;;;5058517;28;20033;-76
2021/08/05 11:54:34;;;;;;;2.20;1.73;;;24.70;74.80;;;;;;5065289;28;20086;-76
2021/08/05 11:57:04;;;;;;;3.95;1.70;;;25.00;71.90;;;;;;5061728;28;20028;-77
2021/08/05 11:59:40;;;;;;;2.20;2.00;;;25.20;69.80;;;;;;5059224;28;20483;-76
2021/08/05 12:02:09;;;;;;;2.40;1.70;;;25.60;63.60;;;;;;5058652;28;20174;-76
2021/08/05 12:04:35;;;;;;;1.73;1.60;;;26.00;67.40;;;;;;5069103;28;20111;-77
2021/08/05 12:07:21;;;;;;;2.42;1.80;;;26.30;63.50;;;;;;5068525;28;20040;-76
2021/08/05 12:10:21;;;;;;;2.25;1.90;;;26.60;65.80;;;;;;5069081;28;20115;-76
2021/08/05 12:13:00;;;;;;;3.42;1.83;;;26.90;65.00;;;;;;5056384;28;20059;-76
2021/08/05 12:15:30;;;;;;;2.45;2.10;;;27.30;66.40;;;;;;5066717;28;20025;-76
2021/08/05 12:18:05;;;;;;;1.60;1.50;;;27.30;60.50;;;;;;5069490;28;20036;-76
2021/08/05 12:20:32;;;;;;;1.75;1.65;;;27.20;60.20;;;;;;5068475;28;20068;-75
2021/08/05 12:23:35;;;;;;;2.50;1.90;;;26.90;60.90;;;;;;5060180;28;20029;-76
2021/08/05 12:26:06;;;;;;;3.40;2.10;;;26.80;61.60;;;;;;5068833;28;20382;-76
2021/08/05 12:28:34;;;;;;;1.85;1.52;;;27.00;59.70;;;;;;5067878;28;20048;-76
2021/08/05 12:31:11;;;;;;;2.10;1.90;;;27.20;61.30;;;;;;5061072;28;20471;-74
2021/08/05 12:33:40;;;;;;;2.45;1.65;;;27.10;61.80;;;;;;5055379;28;20031;-75
2021/08/05 12:36:12;;;;;;;3.00;2.20;;;27.10;61.30;;;;;;5058392;28;20051;-75
2021/08/05 12:38:52;;;;;;;2.22;2.03;;;26.90;64.50;;;;;;5068575;28;20506;-76
2021/08/05 12:41:56;;;;;;;5.22;2.30;;;26.50;62.40;;;;;;5067409;28;20116;-76
2021/08/05 12:44:31;;;;;;;3.65;2.10;;;26.10;63.10;;;;;;4967150;28;20035;-76
2021/08/05 12:46:57;;;;;;;2.28;2.08;;;25.80;65.00;;;;;;4968260;28;20045;-76
2021/08/05 12:49:34;;;;;;;2.22;1.80;;;25.60;66.80;;;;;;5021327;28;20041;-76
2021/08/05 12:52:01;;;;;;;3.42;2.40;;;25.60;65.40;;;;;;5066345;28;20558;-76
2021/08/05 12:54:27;;;;;;;3.25;2.25;;;25.30;66.50;;;;;;5062895;28;20064;-76
2021/08/05 12:56:58;;;;;;;1.90;1.70;;;25.20;69.00;;;;;;5067671;28;20032;-75
2021/08/05 12:59:27;;;;;;;;;;;25.00;67.80;;;;;;5060003;28;20090;-75